sensor_id;sensor_type;location;lat;lon;timestamp;P1;durP1;ratioP1;P2;durP2;ratioP2
77276;SDS011;66330;52.166;9.978;2023-04-01T00:00:45;9.27;;;1.23;;
77276;SDS011;66330;52.166;9.978;2023-04-01T00:03:10;10.87;;;1.70;;
77276;SDS011;66330;52.166;9.978;2023-04-01T00:05:36;12.40;;;1.73;;
77276;SDS011;66330;52.166;9.978;2023-04-01T00:08:02;9.50;;;1.40;;
77276;SDS011;66330;52.166;9.978;2023-04-01T00:10:27;11.90;;;1.70;;
77276;SDS011;66330;52.166;9.978;2023-04-01T00:12:53;10.30;;;1.20;;
77276;SDS011;66330;52.166;9.978;2023-04-01T00:15:19;10.50;;;1.30;;
77276;SDS011;66330;52.166;9.978;2023-04-01T00:17:44;9.27;;;1.27;;
77276;SDS011;66330;52.166;9.978;2023-04-01T00:20:10;10.70;;;1.53;;
77276;SDS011;66330;52.166;9.978;2023-04-01T00:22:37;10.30;;;1.20;;
77276;SDS011;66330;52.166;9.978;2023-04-01T00:25:03;11.20;;;1.40;;
77276;SDS011;66330;52.166;9.978;2023-04-01T00:27:29;9.90;;;1.10;;
77276;SDS011;66330;52.166;9.978;2023-04-01T00:29:55;10.47;;;1.80;;
77276;SDS011;66330;52.166;9.978;2023-04-01T00:32:20;10.10;;;1.30;;
77276;SDS011;66330;52.166;9.978;2023-04-01T00:34:49;9.47;;;1.07;;
77276;SDS011;66330;52.166;9.978;2023-04-01T00:37:16;10.73;;;1.60;;
77276;SDS011;66330;52.166;9.978;2023-04-01T00:39:42;10.70;;;1.80;;
77276;SDS011;66330;52.166;9.978;2023-04-01T00:42:08;9.60;;;1.10;;
77276;SDS011;66330;52.166;9.978;2023-04-01T00:44:34;10.17;;;1.37;;
77276;SDS011;66330;52.166;9.978;2023-04-01T00:47:02;11.43;;;1.47;;
77276;SDS011;66330;52.166;9.978;2023-04-01T00:49:32;11.70;;;1.30;;
77276;SDS011;66330;52.166;9.978;2023-04-01T00:52:01;9.33;;;1.00;;
77276;SDS011;66330;52.166;9.978;2023-04-01T00:54:30;10.00;;;1.20;;
77276;SDS011;66330;52.166;9.978;2023-04-01T00:57:08;11.37;;;1.00;;
77276;SDS011;66330;52.166;9.978;2023-04-01T00:59:45;9.10;;;0.97;;
77276;SDS011;66330;52.166;9.978;2023-04-01T01:02:14;9.70;;;1.03;;
77276;SDS011;66330;52.166;9.978;2023-04-01T01:04:40;9.83;;;1.43;;
77276;SDS011;66330;52.166;9.978;2023-04-01T01:15:44;10.17;;;1.17;;
77276;SDS011;66330;52.166;9.978;2023-04-01T01:21:25;11.17;;;1.10;;
77276;SDS011;66330;52.166;9.978;2023-04-01T01:27:20;10.07;;;1.10;;
77276;SDS011;66330;52.166;9.978;2023-04-01T01:29:52;11.70;;;1.30;;
77276;SDS011;66330;52.166;9.978;2023-04-01T01:32:38;9.57;;;1.10;;
77276;SDS011;66330;52.166;9.978;2023-04-01T01:35:24;9.90;;;1.07;;
77276;SDS011;66330;52.166;9.978;2023-04-01T01:37:56;10.30;;;1.03;;
77276;SDS011;66330;52.166;9.978;2023-04-01T01:40:28;11.10;;;1.20;;
77276;SDS011;66330;52.166;9.978;2023-04-01T01:42:57;10.03;;;1.00;;
77276;SDS011;66330;52.166;9.978;2023-04-01T01:45:25;9.93;;;1.10;;
77276;SDS011;66330;52.166;9.978;2023-04-01T01:47:52;9.70;;;1.10;;
77276;SDS011;66330;52.166;9.978;2023-04-01T01:50:19;9.60;;;1.10;;
77276;SDS011;66330;52.166;9.978;2023-04-01T01:52:47;10.80;;;1.20;;
77276;SDS011;66330;52.166;9.978;2023-04-01T01:55:27;10.00;;;1.10;;
77276;SDS011;66330;52.166;9.978;2023-04-01T01:57:58;9.80;;;0.90;;
77276;SDS011;66330;52.166;9.978;2023-04-01T02:00:29;10.80;;;1.27;;
77276;SDS011;66330;52.166;9.978;2023-04-01T02:03:34;9.23;;;1.17;;
77276;SDS011;66330;52.166;9.978;2023-04-01T02:06:02;10.57;;;1.40;;
77276;SDS011;66330;52.166;9.978;2023-04-01T02:08:33;10.90;;;1.20;;
77276;SDS011;66330;52.166;9.978;2023-04-01T02:11:07;10.20;;;1.43;;
77276;SDS011;66330;52.166;9.978;2023-04-01T02:13:40;10.97;;;1.30;;
77276;SDS011;66330;52.166;9.978;2023-04-01T02:17:08;10.37;;;1.53;;
77276;SDS011;66330;52.166;9.978;2023-04-01T02:19:14;10.13;;;1.33;;
77276;SDS011;66330;52.166;9.978;2023-04-01T02:21:47;9.20;;;1.10;;
77276;SDS011;66330;52.166;9.978;2023-04-01T02:24:18;9.13;;;1.00;;
77276;SDS011;66330;52.166;9.978;2023-04-01T02:26:47;9.83;;;1.00;;
77276;SDS011;66330;52.166;9.978;2023-04-01T02:29:14;10.17;;;1.20;;
77276;SDS011;66330;52.166;9.978;2023-04-01T02:31:43;9.20;;;0.87;;
77276;SDS011;66330;52.166;9.978;2023-04-01T02:34:09;9.90;;;1.60;;
77276;SDS011;66330;52.166;9.978;2023-04-01T02:36:35;9.30;;;0.93;;
77276;SDS011;66330;52.166;9.978;2023-04-01T02:39:01;10.40;;;1.30;;
77276;SDS011;66330;52.166;9.978;2023-04-01T02:41:29;10.03;;;0.97;;
77276;SDS011;66330;52.166;9.978;2023-04-01T02:43:55;9.33;;;1.03;;
77276;SDS011;66330;52.166;9.978;2023-04-01T02:46:23;10.00;;;1.03;;
77276;SDS011;66330;52.166;9.978;2023-04-01T02:48:49;9.90;;;1.43;;
77276;SDS011;66330;52.166;9.978;2023-04-01T02:51:14;9.80;;;1.10;;
77276;SDS011;66330;52.166;9.978;2023-04-01T02:53:40;11.97;;;1.40;;
77276;SDS011;66330;52.166;9.978;2023-04-01T02:56:06;9.40;;;1.10;;
77276;SDS011;66330;52.166;9.978;2023-04-01T02:58:31;9.87;;;1.50;;
77276;SDS011;66330;52.166;9.978;2023-04-01T03:00:57;9.43;;;1.10;;
77276;SDS011;66330;52.166;9.978;2023-04-01T03:03:22;10.43;;;1.30;;
77276;SDS011;66330;52.166;9.978;2023-04-01T03:05:48;9.47;;;1.20;;
77276;SDS011;66330;52.166;9.978;2023-04-01T03:08:13;10.60;;;1.50;;
77276;SDS011;66330;52.166;9.978;2023-04-01T03:10:39;9.77;;;1.07;;
77276;SDS011;66330;52.166;9.978;2023-04-01T03:13:05;9.60;;;1.37;;
77276;SDS011;66330;52.166;9.978;2023-04-01T03:15:31;9.67;;;1.50;;
77276;SDS011;66330;52.166;9.978;2023-04-01T03:17:56;10.20;;;1.30;;
77276;SDS011;66330;52.166;9.978;2023-04-01T03:20:22;11.77;;;1.40;;
77276;SDS011;66330;52.166;9.978;2023-04-01T03:22:47;9.73;;;1.00;;
77276;SDS011;66330;52.166;9.978;2023-04-01T03:25:13;10.03;;;1.37;;
77276;SDS011;66330;52.166;9.978;2023-04-01T03:27:39;9.60;;;1.40;;
77276;SDS011;66330;52.166;9.978;2023-04-01T03:30:05;10.23;;;1.43;;
77276;SDS011;66330;52.166;9.978;2023-04-01T03:32:32;12.33;;;1.73;;
77276;SDS011;66330;52.166;9.978;2023-04-01T03:34:57;9.40;;;1.30;;
77276;SDS011;66330;52.166;9.978;2023-04-01T03:37:23;11.17;;;1.43;;
77276;SDS011;66330;52.166;9.978;2023-04-01T03:39:49;9.10;;;1.20;;
77276;SDS011;66330;52.166;9.978;2023-04-01T03:42:15;9.00;;;1.20;;
77276;SDS011;66330;52.166;9.978;2023-04-01T03:44:41;10.77;;;1.37;;
77276;SDS011;66330;52.166;9.978;2023-04-01T03:47:06;9.10;;;1.00;;
77276;SDS011;66330;52.166;9.978;2023-04-01T03:49:34;9.57;;;1.40;;
77276;SDS011;66330;52.166;9.978;2023-04-01T03:51:59;9.17;;;1.17;;
77276;SDS011;66330;52.166;9.978;2023-04-01T03:54:25;9.70;;;1.50;;
77276;SDS011;66330;52.166;9.978;2023-04-01T03:56:50;11.83;;;1.93;;
77276;SDS011;66330;52.166;9.978;2023-04-01T03:59:16;11.53;;;2.17;;
77276;SDS011;66330;52.166;9.978;2023-04-01T04:01:41;13.40;;;2.20;;
77276;SDS011;66330;52.166;9.978;2023-04-01T04:04:07;9.87;;;1.97;;
77276;SDS011;66330;52.166;9.978;2023-04-01T04:06:35;10.60;;;1.50;;
77276;SDS011;66330;52.166;9.978;2023-04-01T04:09:01;10.20;;;1.70;;
77276;SDS011;66330;52.166;9.978;2023-04-01T04:11:26;9.50;;;1.50;;
77276;SDS011;66330;52.166;9.978;2023-04-01T04:13:52;10.30;;;2.00;;
77276;SDS011;66330;52.166;9.978;2023-04-01T04:16:17;11.80;;;1.80;;
77276;SDS011;66330;52.166;9.978;2023-04-01T04:18:43;9.00;;;1.40;;
77276;SDS011;66330;52.166;9.978;2023-04-01T04:21:12;11.40;;;1.70;;
77276;SDS011;66330;52.166;9.978;2023-04-01T04:23:38;9.00;;;1.20;;
77276;SDS011;66330;52.166;9.978;2023-04-01T04:26:05;10.07;;;2.00;;
77276;SDS011;66330;52.166;9.978;2023-04-01T04:28:32;8.80;;;1.20;;
77276;SDS011;66330;52.166;9.978;2023-04-01T04:30:58;10.70;;;1.80;;
77276;SDS011;66330;52.166;9.978;2023-04-01T04:33:24;10.10;;;2.40;;
77276;SDS011;66330;52.166;9.978;2023-04-01T04:35:51;10.60;;;1.50;;
77276;SDS011;66330;52.166;9.978;2023-04-01T04:38:20;9.50;;;1.33;;
77276;SDS011;66330;52.166;9.978;2023-04-01T04:40:45;10.70;;;1.83;;
77276;SDS011;66330;52.166;9.978;2023-04-01T04:43:11;10.27;;;1.73;;
77276;SDS011;66330;52.166;9.978;2023-04-01T04:45:38;12.10;;;2.23;;
77276;SDS011;66330;52.166;9.978;2023-04-01T04:48:05;10.40;;;2.00;;
77276;SDS011;66330;52.166;9.978;2023-04-01T04:50:32;9.70;;;1.60;;
77276;SDS011;66330;52.166;9.978;2023-04-01T04:52:57;9.30;;;1.33;;
77276;SDS011;66330;52.166;9.978;2023-04-01T04:55:23;9.20;;;1.53;;
77276;SDS011;66330;52.166;9.978;2023-04-01T04:57:48;10.60;;;1.67;;
77276;SDS011;66330;52.166;9.978;2023-04-01T05:00:14;9.30;;;1.70;;
77276;SDS011;66330;52.166;9.978;2023-04-01T05:02:40;9.13;;;1.77;;
77276;SDS011;66330;52.166;9.978;2023-04-01T05:05:05;11.90;;;1.70;;
77276;SDS011;66330;52.166;9.978;2023-04-01T05:07:32;9.70;;;1.73;;
77276;SDS011;66330;52.166;9.978;2023-04-01T05:09:58;11.07;;;2.00;;
77276;SDS011;66330;52.166;9.978;2023-04-01T05:12:24;9.87;;;1.83;;
77276;SDS011;66330;52.166;9.978;2023-04-01T05:14:49;10.97;;;1.70;;
77276;SDS011;66330;52.166;9.978;2023-04-01T05:17:15;9.70;;;1.70;;
77276;SDS011;66330;52.166;9.978;2023-04-01T05:19:40;10.43;;;1.90;;
77276;SDS011;66330;52.166;9.978;2023-04-01T05:22:06;10.90;;;1.90;;
77276;SDS011;66330;52.166;9.978;2023-04-01T05:24:32;11.70;;;2.00;;
77276;SDS011;66330;52.166;9.978;2023-04-01T05:26:58;10.00;;;2.27;;
77276;SDS011;66330;52.166;9.978;2023-04-01T05:29:24;10.70;;;1.60;;
77276;SDS011;66330;52.166;9.978;2023-04-01T05:31:51;10.40;;;1.80;;
77276;SDS011;66330;52.166;9.978;2023-04-01T05:34:16;10.17;;;2.00;;
77276;SDS011;66330;52.166;9.978;2023-04-01T05:36:42;10.83;;;1.83;;
77276;SDS011;66330;52.166;9.978;2023-04-01T05:39:08;10.80;;;1.40;;
77276;SDS011;66330;52.166;9.978;2023-04-01T05:41:35;9.27;;;1.60;;
77276;SDS011;66330;52.166;9.978;2023-04-01T05:44:01;10.73;;;1.80;;
77276;SDS011;66330;52.166;9.978;2023-04-01T05:46:27;10.53;;;1.60;;
77276;SDS011;66330;52.166;9.978;2023-04-01T05:48:53;10.60;;;2.03;;
77276;SDS011;66330;52.166;9.978;2023-04-01T05:51:18;9.67;;;1.87;;
77276;SDS011;66330;52.166;9.978;2023-04-01T05:53:44;9.57;;;1.40;;
77276;SDS011;66330;52.166;9.978;2023-04-01T05:56:09;9.37;;;1.50;;
77276;SDS011;66330;52.166;9.978;2023-04-01T05:58:36;9.60;;;2.10;;
77276;SDS011;66330;52.166;9.978;2023-04-01T06:01:03;9.77;;;1.50;;
77276;SDS011;66330;52.166;9.978;2023-04-01T06:03:30;9.53;;;2.00;;
77276;SDS011;66330;52.166;9.978;2023-04-01T06:05:56;9.67;;;1.70;;
77276;SDS011;66330;52.166;9.978;2023-04-01T06:08:21;10.30;;;1.63;;
77276;SDS011;66330;52.166;9.978;2023-04-01T06:10:58;12.73;;;2.50;;
77276;SDS011;66330;52.166;9.978;2023-04-01T06:19:07;10.80;;;1.37;;
77276;SDS011;66330;52.166;9.978;2023-04-01T06:27:16;10.93;;;1.40;;
77276;SDS011;66330;52.166;9.978;2023-04-01T06:29:50;12.10;;;2.07;;
77276;SDS011;66330;52.166;9.978;2023-04-01T06:32:34;11.20;;;2.03;;
77276;SDS011;66330;52.166;9.978;2023-04-01T06:38:09;12.10;;;2.07;;
77276;SDS011;66330;52.166;9.978;2023-04-01T06:41:08;9.87;;;1.50;;
77276;SDS011;66330;52.166;9.978;2023-04-01T06:46:45;9.47;;;1.10;;
77276;SDS011;66330;52.166;9.978;2023-04-01T06:55:14;9.60;;;1.30;;
77276;SDS011;66330;52.166;9.978;2023-04-01T06:57:51;9.10;;;1.03;;
77276;SDS011;66330;52.166;9.978;2023-04-01T07:00:32;9.10;;;1.20;;
77276;SDS011;66330;52.166;9.978;2023-04-01T07:03:06;8.87;;;1.10;;
77276;SDS011;66330;52.166;9.978;2023-04-01T07:05:41;8.60;;;0.97;;
77276;SDS011;66330;52.166;9.978;2023-04-01T07:08:11;11.10;;;1.40;;
77276;SDS011;66330;52.166;9.978;2023-04-01T07:13:34;10.07;;;1.47;;
77276;SDS011;66330;52.166;9.978;2023-04-01T07:18:50;11.20;;;1.10;;
77276;SDS011;66330;52.166;9.978;2023-04-01T07:21:29;9.50;;;1.23;;
77276;SDS011;66330;52.166;9.978;2023-04-01T07:23:59;9.30;;;1.20;;
77276;SDS011;66330;52.166;9.978;2023-04-01T07:26:29;10.50;;;1.27;;
77276;SDS011;66330;52.166;9.978;2023-04-01T07:28:54;10.23;;;1.23;;
77276;SDS011;66330;52.166;9.978;2023-04-01T07:34:06;10.13;;;1.10;;
77276;SDS011;66330;52.166;9.978;2023-04-01T07:42:16;9.10;;;1.10;;
77276;SDS011;66330;52.166;9.978;2023-04-01T07:45:08;8.73;;;1.10;;
77276;SDS011;66330;52.166;9.978;2023-04-01T07:50:46;10.40;;;1.27;;
77276;SDS011;66330;52.166;9.978;2023-04-01T07:56:03;9.37;;;1.00;;
77276;SDS011;66330;52.166;9.978;2023-04-01T08:09:40;9.90;;;1.30;;
77276;SDS011;66330;52.166;9.978;2023-04-01T08:17:57;10.10;;;1.00;;
77276;SDS011;66330;52.166;9.978;2023-04-01T08:23:12;9.83;;;1.17;;
77276;SDS011;66330;52.166;9.978;2023-04-01T08:25:48;9.90;;;1.30;;
77276;SDS011;66330;52.166;9.978;2023-04-01T08:28:22;9.40;;;1.37;;
77276;SDS011;66330;52.166;9.978;2023-04-01T08:30:55;9.20;;;0.90;;
77276;SDS011;66330;52.166;9.978;2023-04-01T08:33:37;9.80;;;0.90;;
77276;SDS011;66330;52.166;9.978;2023-04-01T08:36:17;10.07;;;1.30;;
77276;SDS011;66330;52.166;9.978;2023-04-01T08:38:54;9.47;;;0.93;;
77276;SDS011;66330;52.166;9.978;2023-04-01T08:47:03;9.60;;;1.40;;
77276;SDS011;66330;52.166;9.978;2023-04-01T08:55:22;8.80;;;0.77;;
77276;SDS011;66330;52.166;9.978;2023-04-01T09:17:05;11.30;;;2.90;;
77276;SDS011;66330;52.166;9.978;2023-04-01T09:23:01;8.70;;;1.10;;
77276;SDS011;66330;52.166;9.978;2023-04-01T09:25:46;8.77;;;1.13;;
77276;SDS011;66330;52.166;9.978;2023-04-01T09:28:18;8.60;;;1.17;;
77276;SDS011;66330;52.166;9.978;2023-04-01T09:36:38;9.33;;;1.00;;
77276;SDS011;66330;52.166;9.978;2023-04-01T09:41:57;8.77;;;0.83;;
77276;SDS011;66330;52.166;9.978;2023-04-01T09:44:48;8.90;;;0.83;;
77276;SDS011;66330;52.166;9.978;2023-04-01T09:53:32;9.90;;;1.40;;
77276;SDS011;66330;52.166;9.978;2023-04-01T10:04:48;8.40;;;1.07;;
77276;SDS011;66330;52.166;9.978;2023-04-01T10:07:51;8.80;;;1.10;;
77276;SDS011;66330;52.166;9.978;2023-04-01T10:16:02;9.00;;;1.00;;
77276;SDS011;66330;52.166;9.978;2023-04-01T10:49:37;8.87;;;1.30;;
77276;SDS011;66330;52.166;9.978;2023-04-01T10:55:10;9.27;;;1.17;;
77276;SDS011;66330;52.166;9.978;2023-04-01T10:58:03;7.87;;;0.90;;
77276;SDS011;66330;52.166;9.978;2023-04-01T11:03:26;8.20;;;1.07;;
77276;SDS011;66330;52.166;9.978;2023-04-01T11:11:40;8.20;;;1.10;;
77276;SDS011;66330;52.166;9.978;2023-04-01T11:15:21;7.90;;;0.93;;
77276;SDS011;66330;52.166;9.978;2023-04-01T11:17:42;8.30;;;1.20;;
77276;SDS011;66330;52.166;9.978;2023-04-01T11:23:01;8.50;;;1.07;;
77276;SDS011;66330;52.166;9.978;2023-04-01T11:28:21;8.20;;;0.90;;
77276;SDS011;66330;52.166;9.978;2023-04-01T11:31:37;8.50;;;1.07;;
77276;SDS011;66330;52.166;9.978;2023-04-01T11:33:54;8.10;;;1.00;;
77276;SDS011;66330;52.166;9.978;2023-04-01T11:39:23;7.90;;;0.80;;
77276;SDS011;66330;52.166;9.978;2023-04-01T11:45:23;8.20;;;0.70;;
77276;SDS011;66330;52.166;9.978;2023-04-01T11:50:59;8.40;;;1.00;;
77276;SDS011;66330;52.166;9.978;2023-04-01T11:53:34;8.43;;;0.90;;
77276;SDS011;66330;52.166;9.978;2023-04-01T11:56:19;8.07;;;0.70;;
77276;SDS011;66330;52.166;9.978;2023-04-01T12:02:14;8.03;;;0.80;;
77276;SDS011;66330;52.166;9.978;2023-04-01T12:07:35;8.40;;;0.90;;
77276;SDS011;66330;52.166;9.978;2023-04-01T12:10:18;8.37;;;0.73;;
77276;SDS011;66330;52.166;9.978;2023-04-01T12:18:25;8.70;;;0.77;;
77276;SDS011;66330;52.166;9.978;2023-04-01T12:21:17;8.37;;;0.70;;
77276;SDS011;66330;52.166;9.978;2023-04-01T12:26:47;8.80;;;0.80;;
77276;SDS011;66330;52.166;9.978;2023-04-01T12:32:03;8.87;;;1.10;;
77276;SDS011;66330;52.166;9.978;2023-04-01T12:37:27;9.10;;;0.70;;
77276;SDS011;66330;52.166;9.978;2023-04-01T12:43:05;8.90;;;0.80;;
77276;SDS011;66330;52.166;9.978;2023-04-01T12:45:42;9.67;;;1.10;;
77276;SDS011;66330;52.166;9.978;2023-04-01T12:48:58;10.20;;;0.70;;
77276;SDS011;66330;52.166;9.978;2023-04-01T12:51:43;8.03;;;0.70;;
77276;SDS011;66330;52.166;9.978;2023-04-01T12:57:36;7.10;;;0.60;;
77276;SDS011;66330;52.166;9.978;2023-04-01T13:02:48;5.60;;;0.80;;
77276;SDS011;66330;52.166;9.978;2023-04-01T13:05:20;5.33;;;0.50;;
77276;SDS011;66330;52.166;9.978;2023-04-01T13:08:10;4.93;;;0.50;;
77276;SDS011;66330;52.166;9.978;2023-04-01T13:10:52;5.93;;;1.00;;
77276;SDS011;66330;52.166;9.978;2023-04-01T13:21:32;5.63;;;0.60;;
77276;SDS011;66330;52.166;9.978;2023-04-01T13:24:09;4.90;;;0.90;;
77276;SDS011;66330;52.166;9.978;2023-04-01T13:29:39;5.57;;;1.00;;
77276;SDS011;66330;52.166;9.978;2023-04-01T13:32:14;5.00;;;1.00;;
77276;SDS011;66330;52.166;9.978;2023-04-01T13:41:05;5.50;;;1.50;;
77276;SDS011;66330;52.166;9.978;2023-04-01T13:43:52;5.50;;;1.63;;
77276;SDS011;66330;52.166;9.978;2023-04-01T13:46:36;5.10;;;0.90;;
77276;SDS011;66330;52.166;9.978;2023-04-01T14:01:05;5.50;;;0.90;;
77276;SDS011;66330;52.166;9.978;2023-04-01T14:03:48;6.10;;;0.90;;
77276;SDS011;66330;52.166;9.978;2023-04-01T14:11:57;5.20;;;1.00;;
77276;SDS011;66330;52.166;9.978;2023-04-01T14:14:31;6.13;;;0.83;;
77276;SDS011;66330;52.166;9.978;2023-04-01T14:25:33;5.50;;;1.00;;
77276;SDS011;66330;52.166;9.978;2023-04-01T14:28:43;5.73;;;1.10;;
77276;SDS011;66330;52.166;9.978;2023-04-01T14:31:44;6.77;;;1.33;;
77276;SDS011;66330;52.166;9.978;2023-04-01T14:50:31;6.50;;;1.80;;
77276;SDS011;66330;52.166;9.978;2023-04-01T14:55:52;6.97;;;1.90;;
77276;SDS011;66330;52.166;9.978;2023-04-01T14:58:21;8.20;;;2.27;;
77276;SDS011;66330;52.166;9.978;2023-04-01T15:00:54;9.70;;;2.60;;
77276;SDS011;66330;52.166;9.978;2023-04-01T15:03:37;8.07;;;3.20;;
77276;SDS011;66330;52.166;9.978;2023-04-01T15:09:01;7.40;;;2.70;;
77276;SDS011;66330;52.166;9.978;2023-04-01T15:11:47;7.27;;;2.50;;
77276;SDS011;66330;52.166;9.978;2023-04-01T15:26:47;8.00;;;2.37;;
77276;SDS011;66330;52.166;9.978;2023-04-01T15:35:18;8.60;;;2.57;;
77276;SDS011;66330;52.166;9.978;2023-04-01T15:40:35;8.60;;;2.17;;
77276;SDS011;66330;52.166;9.978;2023-04-01T15:49:22;9.07;;;1.60;;
77276;SDS011;66330;52.166;9.978;2023-04-01T15:57:35;8.03;;;1.33;;
77276;SDS011;66330;52.166;9.978;2023-04-01T16:00:29;8.30;;;1.60;;
77276;SDS011;66330;52.166;9.978;2023-04-01T16:08:40;7.80;;;1.10;;
77276;SDS011;66330;52.166;9.978;2023-04-01T16:19:22;8.03;;;1.37;;
77276;SDS011;66330;52.166;9.978;2023-04-01T16:22:13;9.10;;;1.47;;
77276;SDS011;66330;52.166;9.978;2023-04-01T16:25:21;8.50;;;1.43;;
77276;SDS011;66330;52.166;9.978;2023-04-01T16:33:37;8.40;;;1.73;;
77276;SDS011;66330;52.166;9.978;2023-04-01T16:41:40;8.70;;;2.07;;
77276;SDS011;66330;52.166;9.978;2023-04-01T16:46:58;8.50;;;1.60;;
77276;SDS011;66330;52.166;9.978;2023-04-01T16:52:34;8.67;;;1.93;;
77276;SDS011;66330;52.166;9.978;2023-04-01T16:55:24;8.67;;;1.57;;
77276;SDS011;66330;52.166;9.978;2023-04-01T16:58:01;8.23;;;1.20;;
77276;SDS011;66330;52.166;9.978;2023-04-01T17:00:30;8.30;;;1.30;;
77276;SDS011;66330;52.166;9.978;2023-04-01T17:22:32;8.13;;;1.20;;
77276;SDS011;66330;52.166;9.978;2023-04-01T17:30:59;9.00;;;2.00;;
77276;SDS011;66330;52.166;9.978;2023-04-01T17:33:48;9.10;;;1.50;;
77276;SDS011;66330;52.166;9.978;2023-04-01T17:36:39;8.83;;;1.53;;
77276;SDS011;66330;52.166;9.978;2023-04-01T17:42:21;8.33;;;1.20;;
77276;SDS011;66330;52.166;9.978;2023-04-01T17:50:30;7.70;;;2.07;;
77276;SDS011;66330;52.166;9.978;2023-04-01T17:56:00;6.80;;;2.43;;
77276;SDS011;66330;52.166;9.978;2023-04-01T18:09:30;6.20;;;1.90;;
77276;SDS011;66330;52.166;9.978;2023-04-01T18:14:54;6.70;;;2.57;;
77276;SDS011;66330;52.166;9.978;2023-04-01T18:25:46;6.00;;;2.37;;
77276;SDS011;66330;52.166;9.978;2023-04-01T18:31:24;6.70;;;2.80;;
77276;SDS011;66330;52.166;9.978;2023-04-01T18:33:59;6.10;;;2.30;;
77276;SDS011;66330;52.166;9.978;2023-04-01T18:36:37;5.90;;;2.20;;
77276;SDS011;66330;52.166;9.978;2023-04-01T18:41:47;5.90;;;2.20;;
77276;SDS011;66330;52.166;9.978;2023-04-01T18:44:30;6.20;;;2.53;;
77276;SDS011;66330;52.166;9.978;2023-04-01T18:49:43;6.10;;;2.20;;
77276;SDS011;66330;52.166;9.978;2023-04-01T18:52:19;6.10;;;2.37;;
77276;SDS011;66330;52.166;9.978;2023-04-01T18:55:18;6.40;;;2.37;;
77276;SDS011;66330;52.166;9.978;2023-04-01T19:03:43;6.00;;;1.97;;
77276;SDS011;66330;52.166;9.978;2023-04-01T19:06:21;5.33;;;1.70;;
77276;SDS011;66330;52.166;9.978;2023-04-01T19:08:53;6.50;;;2.00;;
77276;SDS011;66330;52.166;9.978;2023-04-01T19:11:32;5.83;;;2.10;;
77276;SDS011;66330;52.166;9.978;2023-04-01T19:17:36;5.40;;;1.87;;
77276;SDS011;66330;52.166;9.978;2023-04-01T19:25:49;5.10;;;1.30;;
77276;SDS011;66330;52.166;9.978;2023-04-01T19:28:31;5.70;;;1.83;;
77276;SDS011;66330;52.166;9.978;2023-04-01T19:39:25;6.00;;;1.90;;
77276;SDS011;66330;52.166;9.978;2023-04-01T19:47:56;6.53;;;2.77;;
77276;SDS011;66330;52.166;9.978;2023-04-01T19:53:37;5.30;;;2.00;;
77276;SDS011;66330;52.166;9.978;2023-04-01T19:56:15;5.30;;;1.90;;
77276;SDS011;66330;52.166;9.978;2023-04-01T20:01:35;5.40;;;1.90;;
77276;SDS011;66330;52.166;9.978;2023-04-01T20:04:20;4.87;;;1.60;;
77276;SDS011;66330;52.166;9.978;2023-04-01T20:15:21;5.87;;;2.80;;
77276;SDS011;66330;52.166;9.978;2023-04-01T20:17:57;6.00;;;2.60;;
77276;SDS011;66330;52.166;9.978;2023-04-01T20:20:28;5.70;;;2.43;;
77276;SDS011;66330;52.166;9.978;2023-04-01T20:23:01;6.03;;;3.20;;
77276;SDS011;66330;52.166;9.978;2023-04-01T20:42:59;6.13;;;2.47;;
77276;SDS011;66330;52.166;9.978;2023-04-01T20:49:21;6.17;;;2.53;;
77276;SDS011;66330;52.166;9.978;2023-04-01T20:51:30;6.53;;;2.40;;
77276;SDS011;66330;52.166;9.978;2023-04-01T20:56:53;5.90;;;2.40;;
77276;SDS011;66330;52.166;9.978;2023-04-01T20:59:30;6.20;;;2.53;;
77276;SDS011;66330;52.166;9.978;2023-04-01T21:10:32;6.60;;;2.93;;
77276;SDS011;66330;52.166;9.978;2023-04-01T21:13:17;5.60;;;2.80;;
77276;SDS011;66330;52.166;9.978;2023-04-01T21:16:13;7.63;;;2.50;;
77276;SDS011;66330;52.166;9.978;2023-04-01T21:19:08;5.10;;;2.40;;
77276;SDS011;66330;52.166;9.978;2023-04-01T21:27:08;7.70;;;2.77;;
77276;SDS011;66330;52.166;9.978;2023-04-01T21:29:53;6.10;;;2.73;;
77276;SDS011;66330;52.166;9.978;2023-04-01T21:33:23;5.60;;;2.70;;
77276;SDS011;66330;52.166;9.978;2023-04-01T21:43:17;6.80;;;3.33;;
77276;SDS011;66330;52.166;9.978;2023-04-01T21:45:50;7.50;;;4.37;;
77276;SDS011;66330;52.166;9.978;2023-04-01T21:54:07;7.57;;;3.30;;
77276;SDS011;66330;52.166;9.978;2023-04-01T22:04:51;6.47;;;2.87;;
77276;SDS011;66330;52.166;9.978;2023-04-01T22:07:25;6.63;;;3.20;;
77276;SDS011;66330;52.166;9.978;2023-04-01T22:12:44;7.07;;;3.20;;
77276;SDS011;66330;52.166;9.978;2023-04-01T22:18:29;6.47;;;3.27;;
77276;SDS011;66330;52.166;9.978;2023-04-01T22:23:56;6.80;;;3.93;;
77276;SDS011;66330;52.166;9.978;2023-04-01T22:29:07;7.00;;;4.33;;
77276;SDS011;66330;52.166;9.978;2023-04-01T22:31:44;7.60;;;4.40;;
77276;SDS011;66330;52.166;9.978;2023-04-01T22:42:41;7.43;;;3.53;;
77276;SDS011;66330;52.166;9.978;2023-04-01T22:45:30;6.30;;;3.53;;
77276;SDS011;66330;52.166;9.978;2023-04-01T22:50:51;6.10;;;2.83;;
77276;SDS011;66330;52.166;9.978;2023-04-01T22:53:39;6.47;;;3.37;;
77276;SDS011;66330;52.166;9.978;2023-04-01T22:56:20;6.97;;;4.13;;
77276;SDS011;66330;52.166;9.978;2023-04-01T22:58:55;7.30;;;3.80;;
77276;SDS011;66330;52.166;9.978;2023-04-01T23:01:30;7.20;;;4.23;;
77276;SDS011;66330;52.166;9.978;2023-04-01T23:04:37;6.90;;;4.30;;
77276;SDS011;66330;52.166;9.978;2023-04-01T23:09:56;6.40;;;3.60;;
77276;SDS011;66330;52.166;9.978;2023-04-01T23:12:25;7.40;;;4.30;;
77276;SDS011;66330;52.166;9.978;2023-04-01T23:14:52;8.63;;;5.57;;
77276;SDS011;66330;52.166;9.978;2023-04-01T23:17:47;6.80;;;3.37;;
77276;SDS011;66330;52.166;9.978;2023-04-01T23:20:26;7.93;;;3.70;;
77276;SDS011;66330;52.166;9.978;2023-04-01T23:28:50;7.80;;;5.20;;
77276;SDS011;66330;52.166;9.978;2023-04-01T23:34:17;7.97;;;4.80;;
77276;SDS011;66330;52.166;9.978;2023-04-01T23:36:48;8.43;;;5.80;;
77276;SDS011;66330;52.166;9.978;2023-04-01T23:39:21;9.30;;;5.40;;
77276;SDS011;66330;52.166;9.978;2023-04-01T23:41:53;7.83;;;5.33;;
77276;SDS011;66330;52.166;9.978;2023-04-01T23:44:21;9.17;;;5.87;;
77276;SDS011;66330;52.166;9.978;2023-04-01T23:46:50;8.10;;;5.10;;
77276;SDS011;66330;52.166;9.978;2023-04-01T23:49:19;8.00;;;4.50;;
77276;SDS011;66330;52.166;9.978;2023-04-01T23:55:08;9.70;;;5.07;;
77276;SDS011;66330;52.166;9.978;2023-04-01T23:58:06;12.20;;;5.20;;
